sensor_id;sensor_type;location;lat;lon;timestamp;pressure;altitude;pressure_sealevel;temperature
74321;BMP280;62738;45.772;4.804;2023-03-11T00:01:14;98910.22;;;11.30
74321;BMP280;62738;45.772;4.804;2023-03-11T00:03:40;98898.53;;;11.32
74321;BMP280;62738;45.772;4.804;2023-03-11T00:06:07;98908.75;;;11.39
74321;BMP280;62738;45.772;4.804;2023-03-11T00:08:34;98903.19;;;11.39
74321;BMP280;62738;45.772;4.804;2023-03-11T00:11:01;98902.06;;;11.23
74321;BMP280;62738;45.772;4.804;2023-03-11T00:13:28;98885.66;;;11.36
74321;BMP280;62738;45.772;4.804;2023-03-11T00:15:56;98886.44;;;11.27
74321;BMP280;62738;45.772;4.804;2023-03-11T00:18:25;98890.53;;;11.26
74321;BMP280;62738;45.772;4.804;2023-03-11T00:20:53;98894.19;;;11.29
74321;BMP280;62738;45.772;4.804;2023-03-11T00:23:20;98895.34;;;11.26
74321;BMP280;62738;45.772;4.804;2023-03-11T00:25:47;98884.63;;;11.32
74321;BMP280;62738;45.772;4.804;2023-03-11T00:28:14;98883.41;;;11.04
74321;BMP280;62738;45.772;4.804;2023-03-11T00:30:43;98880.75;;;11.16
74321;BMP280;62738;45.772;4.804;2023-03-11T00:33:12;98871.84;;;11.17
74321;BMP280;62738;45.772;4.804;2023-03-11T00:35:39;98850.81;;;11.14
74321;BMP280;62738;45.772;4.804;2023-03-11T00:38:07;98847.31;;;11.04
74321;BMP280;62738;45.772;4.804;2023-03-11T00:40:38;98850.53;;;11.00
74321;BMP280;62738;45.772;4.804;2023-03-11T00:43:04;98836.50;;;11.08
74321;BMP280;62738;45.772;4.804;2023-03-11T00:45:31;98839.88;;;11.06
74321;BMP280;62738;45.772;4.804;2023-03-11T00:47:58;98844.97;;;11.00
74321;BMP280;62738;45.772;4.804;2023-03-11T00:50:28;98839.19;;;10.96
74321;BMP280;62738;45.772;4.804;2023-03-11T00:52:56;98827.50;;;10.98
74321;BMP280;62738;45.772;4.804;2023-03-11T00:55:25;98824.50;;;11.15
74321;BMP280;62738;45.772;4.804;2023-03-11T00:57:54;98829.63;;;11.19
74321;BMP280;62738;45.772;4.804;2023-03-11T01:00:22;98814.81;;;10.85
74321;BMP280;62738;45.772;4.804;2023-03-11T01:02:49;98810.59;;;10.75
74321;BMP280;62738;45.772;4.804;2023-03-11T01:05:21;98821.66;;;10.84
74321;BMP280;62738;45.772;4.804;2023-03-11T01:07:48;98819.19;;;10.98
74321;BMP280;62738;45.772;4.804;2023-03-11T01:10:16;98801.84;;;11.19
74321;BMP280;62738;45.772;4.804;2023-03-11T01:12:43;98796.91;;;11.07
74321;BMP280;62738;45.772;4.804;2023-03-11T01:15:17;98798.25;;;11.06
74321;BMP280;62738;45.772;4.804;2023-03-11T01:17:44;98782.63;;;11.01
74321;BMP280;62738;45.772;4.804;2023-03-11T01:20:11;98783.53;;;10.94
74321;BMP280;62738;45.772;4.804;2023-03-11T01:22:38;98782.19;;;11.05
74321;BMP280;62738;45.772;4.804;2023-03-11T01:25:05;98777.06;;;11.11
74321;BMP280;62738;45.772;4.804;2023-03-11T01:27:32;98758.97;;;11.00
74321;BMP280;62738;45.772;4.804;2023-03-11T01:29:58;98752.09;;;11.01
74321;BMP280;62738;45.772;4.804;2023-03-11T01:32:25;98754.34;;;10.93
74321;BMP280;62738;45.772;4.804;2023-03-11T01:34:52;98753.16;;;10.96
74321;BMP280;62738;45.772;4.804;2023-03-11T01:37:18;98746.03;;;11.24
74321;BMP280;62738;45.772;4.804;2023-03-11T01:39:45;98767.25;;;11.10
74321;BMP280;62738;45.772;4.804;2023-03-11T01:42:12;98765.13;;;11.30
74321;BMP280;62738;45.772;4.804;2023-03-11T01:44:39;98748.34;;;11.28
74321;BMP280;62738;45.772;4.804;2023-03-11T01:49:35;98728.34;;;11.50
74321;BMP280;62738;45.772;4.804;2023-03-11T01:52:08;98724.13;;;11.19
74321;BMP280;62738;45.772;4.804;2023-03-11T01:54:37;98706.78;;;11.08
74321;BMP280;62738;45.772;4.804;2023-03-11T01:57:07;98712.44;;;11.20
74321;BMP280;62738;45.772;4.804;2023-03-11T01:59:45;98708.78;;;10.96
74321;BMP280;62738;45.772;4.804;2023-03-11T02:02:20;98701.38;;;10.80
74321;BMP280;62738;45.772;4.804;2023-03-11T02:04:50;98687.66;;;10.82
74321;BMP280;62738;45.772;4.804;2023-03-11T02:07:17;98688.03;;;10.97
74321;BMP280;62738;45.772;4.804;2023-03-11T02:09:43;98676.84;;;11.07
74321;BMP280;62738;45.772;4.804;2023-03-11T02:12:12;98683.41;;;10.81
74321;BMP280;62738;45.772;4.804;2023-03-11T02:14:42;98682.22;;;10.84
74321;BMP280;62738;45.772;4.804;2023-03-11T02:17:11;98684.72;;;10.80
74321;BMP280;62738;45.772;4.804;2023-03-11T02:20:04;98691.16;;;10.82
74321;BMP280;62738;45.772;4.804;2023-03-11T02:22:34;98681.94;;;10.80
74321;BMP280;62738;45.772;4.804;2023-03-11T02:25:13;98680.28;;;10.96
74321;BMP280;62738;45.772;4.804;2023-03-11T02:27:46;98682.53;;;11.09
74321;BMP280;62738;45.772;4.804;2023-03-11T02:30:15;98684.31;;;11.04
74321;BMP280;62738;45.772;4.804;2023-03-11T02:32:44;98678.31;;;11.08
74321;BMP280;62738;45.772;4.804;2023-03-11T02:35:14;98681.81;;;11.08
74321;BMP280;62738;45.772;4.804;2023-03-11T02:37:49;98672.91;;;10.79
74321;BMP280;62738;45.772;4.804;2023-03-11T02:42:54;98679.59;;;11.38
74321;BMP280;62738;45.772;4.804;2023-03-11T02:45:24;98674.50;;;11.13
74321;BMP280;62738;45.772;4.804;2023-03-11T02:47:53;98654.25;;;11.01
74321;BMP280;62738;45.772;4.804;2023-03-11T02:50:21;98652.16;;;10.80
74321;BMP280;62738;45.772;4.804;2023-03-11T02:52:48;98655.34;;;10.86
74321;BMP280;62738;45.772;4.804;2023-03-11T02:55:15;98636.81;;;10.89
74321;BMP280;62738;45.772;4.804;2023-03-11T02:57:43;98634.81;;;11.01
74321;BMP280;62738;45.772;4.804;2023-03-11T03:00:10;98630.88;;;11.04
74321;BMP280;62738;45.772;4.804;2023-03-11T03:02:40;98619.25;;;10.96
74321;BMP280;62738;45.772;4.804;2023-03-11T03:05:07;98616.66;;;11.09
74321;BMP280;62738;45.772;4.804;2023-03-11T03:07:34;98609.09;;;11.00
74321;BMP280;62738;45.772;4.804;2023-03-11T03:10:00;98600.88;;;11.12
74321;BMP280;62738;45.772;4.804;2023-03-11T03:12:27;98592.59;;;11.02
74321;BMP280;62738;45.772;4.804;2023-03-11T03:14:54;98589.84;;;11.24
74321;BMP280;62738;45.772;4.804;2023-03-11T03:17:20;98596.31;;;11.17
74321;BMP280;62738;45.772;4.804;2023-03-11T03:19:47;98596.19;;;11.15
74321;BMP280;62738;45.772;4.804;2023-03-11T03:22:13;98600.94;;;11.24
74321;BMP280;62738;45.772;4.804;2023-03-11T03:24:40;98620.78;;;11.30
74321;BMP280;62738;45.772;4.804;2023-03-11T03:27:07;98628.69;;;11.24
74321;BMP280;62738;45.772;4.804;2023-03-11T03:29:33;98628.97;;;11.06
74321;BMP280;62738;45.772;4.804;2023-03-11T03:32:00;98615.38;;;11.01
74321;BMP280;62738;45.772;4.804;2023-03-11T03:34:27;98592.09;;;11.16
74321;BMP280;62738;45.772;4.804;2023-03-11T03:36:53;98586.13;;;11.09
74321;BMP280;62738;45.772;4.804;2023-03-11T03:39:20;98580.47;;;11.29
74321;BMP280;62738;45.772;4.804;2023-03-11T03:41:46;98574.88;;;11.07
74321;BMP280;62738;45.772;4.804;2023-03-11T03:44:13;98601.06;;;11.04
74321;BMP280;62738;45.772;4.804;2023-03-11T03:46:40;98618.16;;;10.80
74321;BMP280;62738;45.772;4.804;2023-03-11T03:49:06;98615.34;;;10.58
74321;BMP280;62738;45.772;4.804;2023-03-11T03:51:33;98612.44;;;10.47
74321;BMP280;62738;45.772;4.804;2023-03-11T03:54:00;98599.81;;;10.34
74321;BMP280;62738;45.772;4.804;2023-03-11T03:56:26;98598.28;;;10.43
74321;BMP280;62738;45.772;4.804;2023-03-11T03:58:53;98606.84;;;10.66
74321;BMP280;62738;45.772;4.804;2023-03-11T04:01:20;98607.59;;;10.88
74321;BMP280;62738;45.772;4.804;2023-03-11T04:03:46;98597.28;;;10.79
74321;BMP280;62738;45.772;4.804;2023-03-11T04:06:21;98598.19;;;10.72
74321;BMP280;62738;45.772;4.804;2023-03-11T04:08:50;98612.03;;;10.81
74321;BMP280;62738;45.772;4.804;2023-03-11T04:11:17;98613.03;;;10.76
74321;BMP280;62738;45.772;4.804;2023-03-11T04:13:44;98608.53;;;10.81
74321;BMP280;62738;45.772;4.804;2023-03-11T04:16:19;98604.25;;;10.89
74321;BMP280;62738;45.772;4.804;2023-03-11T04:18:46;98598.81;;;10.91
74321;BMP280;62738;45.772;4.804;2023-03-11T04:21:13;98603.03;;;10.92
74321;BMP280;62738;45.772;4.804;2023-03-11T04:23:40;98589.97;;;10.83
74321;BMP280;62738;45.772;4.804;2023-03-11T04:26:06;98580.31;;;10.84
74321;BMP280;62738;45.772;4.804;2023-03-11T04:28:33;98590.56;;;11.03
74321;BMP280;62738;45.772;4.804;2023-03-11T04:31:00;98598.41;;;10.85
74321;BMP280;62738;45.772;4.804;2023-03-11T04:33:26;98587.19;;;10.83
74321;BMP280;62738;45.772;4.804;2023-03-11T04:35:53;98604.28;;;11.01
74321;BMP280;62738;45.772;4.804;2023-03-11T04:38:20;98594.41;;;10.98
74321;BMP280;62738;45.772;4.804;2023-03-11T04:40:46;98594.06;;;11.03
74321;BMP280;62738;45.772;4.804;2023-03-11T04:43:13;98616.41;;;11.05
74321;BMP280;62738;45.772;4.804;2023-03-11T04:45:40;98615.53;;;11.03
74321;BMP280;62738;45.772;4.804;2023-03-11T04:48:10;98603.56;;;11.00
74321;BMP280;62738;45.772;4.804;2023-03-11T04:50:36;98600.16;;;10.90
74321;BMP280;62738;45.772;4.804;2023-03-11T04:53:03;98584.41;;;10.83
74321;BMP280;62738;45.772;4.804;2023-03-11T04:55:29;98575.03;;;10.88
74321;BMP280;62738;45.772;4.804;2023-03-11T04:57:56;98566.91;;;11.02
74321;BMP280;62738;45.772;4.804;2023-03-11T05:00:23;98556.66;;;11.04
74321;BMP280;62738;45.772;4.804;2023-03-11T05:02:50;98545.44;;;10.81
74321;BMP280;62738;45.772;4.804;2023-03-11T05:05:17;98543.66;;;10.86
74321;BMP280;62738;45.772;4.804;2023-03-11T05:07:45;98582.97;;;10.82
74321;BMP280;62738;45.772;4.804;2023-03-11T05:10:12;98603.69;;;10.81
74321;BMP280;62738;45.772;4.804;2023-03-11T05:12:39;98611.59;;;10.75
74321;BMP280;62738;45.772;4.804;2023-03-11T05:15:06;98620.44;;;11.14
74321;BMP280;62738;45.772;4.804;2023-03-11T05:17:32;98621.53;;;10.99
74321;BMP280;62738;45.772;4.804;2023-03-11T05:19:59;98618.88;;;10.80
74321;BMP280;62738;45.772;4.804;2023-03-11T05:22:25;98621.75;;;10.51
74321;BMP280;62738;45.772;4.804;2023-03-11T05:24:52;98636.50;;;10.54
74321;BMP280;62738;45.772;4.804;2023-03-11T05:27:19;98638.47;;;10.73
74321;BMP280;62738;45.772;4.804;2023-03-11T05:29:46;98619.41;;;10.67
74321;BMP280;62738;45.772;4.804;2023-03-11T05:32:13;98618.47;;;10.74
74321;BMP280;62738;45.772;4.804;2023-03-11T05:34:40;98611.97;;;10.60
74321;BMP280;62738;45.772;4.804;2023-03-11T05:37:07;98623.22;;;10.52
74321;BMP280;62738;45.772;4.804;2023-03-11T05:39:34;98624.38;;;10.59
74321;BMP280;62738;45.772;4.804;2023-03-11T05:42:07;98631.28;;;10.39
74321;BMP280;62738;45.772;4.804;2023-03-11T05:44:33;98642.94;;;10.47
74321;BMP280;62738;45.772;4.804;2023-03-11T05:47:00;98630.06;;;10.61
74321;BMP280;62738;45.772;4.804;2023-03-11T05:49:27;98640.03;;;10.45
74321;BMP280;62738;45.772;4.804;2023-03-11T05:51:53;98662.13;;;10.33
74321;BMP280;62738;45.772;4.804;2023-03-11T05:54:23;98662.41;;;10.27
74321;BMP280;62738;45.772;4.804;2023-03-11T05:56:50;98666.50;;;10.26
74321;BMP280;62738;45.772;4.804;2023-03-11T05:59:18;98681.22;;;10.19
74321;BMP280;62738;45.772;4.804;2023-03-11T06:01:45;98691.47;;;10.07
74321;BMP280;62738;45.772;4.804;2023-03-11T06:04:11;98684.19;;;10.02
74321;BMP280;62738;45.772;4.804;2023-03-11T06:06:39;98694.97;;;10.17
74321;BMP280;62738;45.772;4.804;2023-03-11T06:09:12;98696.44;;;9.99
74321;BMP280;62738;45.772;4.804;2023-03-11T06:11:39;98697.56;;;10.15
74321;BMP280;62738;45.772;4.804;2023-03-11T06:14:13;98702.81;;;10.21
74321;BMP280;62738;45.772;4.804;2023-03-11T06:16:40;98704.59;;;10.16
74321;BMP280;62738;45.772;4.804;2023-03-11T06:19:07;98695.38;;;10.14
74321;BMP280;62738;45.772;4.804;2023-03-11T06:21:34;98710.97;;;10.09
74321;BMP280;62738;45.772;4.804;2023-03-11T06:24:00;98708.66;;;10.15
74321;BMP280;62738;45.772;4.804;2023-03-11T06:26:27;98713.28;;;10.42
74321;BMP280;62738;45.772;4.804;2023-03-11T06:28:54;98715.25;;;10.70
74321;BMP280;62738;45.772;4.804;2023-03-11T06:31:22;98723.72;;;10.72
74321;BMP280;62738;45.772;4.804;2023-03-11T06:33:51;98724.16;;;10.78
74321;BMP280;62738;45.772;4.804;2023-03-11T06:36:19;98726.34;;;10.70
74321;BMP280;62738;45.772;4.804;2023-03-11T06:38:46;98737.78;;;10.64
74321;BMP280;62738;45.772;4.804;2023-03-11T06:41:13;98731.81;;;10.39
74321;BMP280;62738;45.772;4.804;2023-03-11T06:43:40;98732.56;;;10.40
74321;BMP280;62738;45.772;4.804;2023-03-11T06:46:12;98731.69;;;10.27
74321;BMP280;62738;45.772;4.804;2023-03-11T06:48:39;98744.38;;;10.11
74321;BMP280;62738;45.772;4.804;2023-03-11T06:51:05;98747.91;;;10.21
74321;BMP280;62738;45.772;4.804;2023-03-11T06:53:32;98745.69;;;10.10
74321;BMP280;62738;45.772;4.804;2023-03-11T06:56:07;98750.97;;;10.16
74321;BMP280;62738;45.772;4.804;2023-03-11T06:58:36;98750.81;;;10.33
74321;BMP280;62738;45.772;4.804;2023-03-11T07:01:05;98750.97;;;10.16
74321;BMP280;62738;45.772;4.804;2023-03-11T07:03:32;98746.91;;;10.07
74321;BMP280;62738;45.772;4.804;2023-03-11T07:05:59;98741.78;;;10.04
74321;BMP280;62738;45.772;4.804;2023-03-11T07:08:26;98750.81;;;10.23
74321;BMP280;62738;45.772;4.804;2023-03-11T07:11:22;98754.16;;;10.41
74321;BMP280;62738;45.772;4.804;2023-03-11T07:13:50;98766.56;;;10.21
74321;BMP280;62738;45.772;4.804;2023-03-11T07:16:19;98765.56;;;10.16
74321;BMP280;62738;45.772;4.804;2023-03-11T07:18:47;98780.41;;;10.21
74321;BMP280;62738;45.772;4.804;2023-03-11T07:21:16;98786.28;;;10.25
74321;BMP280;62738;45.772;4.804;2023-03-11T07:23:44;98786.25;;;10.35
74321;BMP280;62738;45.772;4.804;2023-03-11T07:26:13;98788.00;;;10.40
74321;BMP280;62738;45.772;4.804;2023-03-11T07:28:40;98788.44;;;10.36
74321;BMP280;62738;45.772;4.804;2023-03-11T07:31:12;98796.16;;;10.18
74321;BMP280;62738;45.772;4.804;2023-03-11T07:33:39;98795.88;;;10.05
74321;BMP280;62738;45.772;4.804;2023-03-11T07:36:07;98810.16;;;10.11
74321;BMP280;62738;45.772;4.804;2023-03-11T07:38:35;98820.53;;;10.20
74321;BMP280;62738;45.772;4.804;2023-03-11T07:41:02;98819.94;;;10.02
74321;BMP280;62738;45.772;4.804;2023-03-11T07:43:28;98815.69;;;10.01
74321;BMP280;62738;45.772;4.804;2023-03-11T07:48:29;98817.59;;;10.08
74321;BMP280;62738;45.772;4.804;2023-03-11T07:51:08;98825.22;;;10.27
74321;BMP280;62738;45.772;4.804;2023-03-11T07:53:35;98837.31;;;10.51
74321;BMP280;62738;45.772;4.804;2023-03-11T07:56:02;98840.22;;;10.72
74321;BMP280;62738;45.772;4.804;2023-03-11T07:58:29;98855.41;;;10.81
74321;BMP280;62738;45.772;4.804;2023-03-11T08:01:02;98862.25;;;10.80
74321;BMP280;62738;45.772;4.804;2023-03-11T08:03:29;98861.56;;;10.60
74321;BMP280;62738;45.772;4.804;2023-03-11T08:05:56;98858.91;;;10.52
74321;BMP280;62738;45.772;4.804;2023-03-11T08:08:23;98852.66;;;10.42
74321;BMP280;62738;45.772;4.804;2023-03-11T08:10:49;98858.47;;;10.46
74321;BMP280;62738;45.772;4.804;2023-03-11T08:13:16;98856.28;;;10.35
74321;BMP280;62738;45.772;4.804;2023-03-11T08:15:43;98852.50;;;10.40
74321;BMP280;62738;45.772;4.804;2023-03-11T08:18:09;98860.38;;;10.44
74321;BMP280;62738;45.772;4.804;2023-03-11T08:20:37;98860.81;;;10.59
74321;BMP280;62738;45.772;4.804;2023-03-11T08:23:04;98868.84;;;10.55
74321;BMP280;62738;45.772;4.804;2023-03-11T08:25:31;98885.75;;;10.69
74321;BMP280;62738;45.772;4.804;2023-03-11T08:27:58;98886.94;;;10.85
74321;BMP280;62738;45.772;4.804;2023-03-11T08:30:24;98881.56;;;10.68
74321;BMP280;62738;45.772;4.804;2023-03-11T08:32:51;98886.50;;;10.69
74321;BMP280;62738;45.772;4.804;2023-03-11T08:35:18;98874.41;;;10.55
74321;BMP280;62738;45.772;4.804;2023-03-11T08:37:44;98878.03;;;10.77
74321;BMP280;62738;45.772;4.804;2023-03-11T08:40:11;98880.66;;;10.75
74321;BMP280;62738;45.772;4.804;2023-03-11T08:42:38;98894.19;;;11.09
74321;BMP280;62738;45.772;4.804;2023-03-11T08:45:05;98899.75;;;11.19
74321;BMP280;62738;45.772;4.804;2023-03-11T08:47:34;98908.13;;;10.81
74321;BMP280;62738;45.772;4.804;2023-03-11T08:50:06;98911.19;;;10.56
74321;BMP280;62738;45.772;4.804;2023-03-11T08:52:34;98907.97;;;10.59
74321;BMP280;62738;45.772;4.804;2023-03-11T08:55:00;98905.47;;;10.44
74321;BMP280;62738;45.772;4.804;2023-03-11T08:57:27;98901.38;;;10.36
74321;BMP280;62738;45.772;4.804;2023-03-11T08:59:54;98902.97;;;10.39
74321;BMP280;62738;45.772;4.804;2023-03-11T09:02:24;98900.19;;;10.39
74321;BMP280;62738;45.772;4.804;2023-03-11T09:04:51;98910.16;;;10.42
74321;BMP280;62738;45.772;4.804;2023-03-11T09:07:17;98905.63;;;10.56
74321;BMP280;62738;45.772;4.804;2023-03-11T09:09:44;98916.88;;;10.48
74321;BMP280;62738;45.772;4.804;2023-03-11T09:12:11;98924.44;;;10.48
74321;BMP280;62738;45.772;4.804;2023-03-11T09:14:40;98937.72;;;10.40
74321;BMP280;62738;45.772;4.804;2023-03-11T09:17:08;98933.06;;;10.52
74321;BMP280;62738;45.772;4.804;2023-03-11T09:19:35;98932.59;;;10.46
74321;BMP280;62738;45.772;4.804;2023-03-11T09:22:03;98942.81;;;10.43
74321;BMP280;62738;45.772;4.804;2023-03-11T09:24:33;98939.34;;;10.33
74321;BMP280;62738;45.772;4.804;2023-03-11T09:27:00;98948.41;;;9.97
74321;BMP280;62738;45.772;4.804;2023-03-11T09:29:27;98944.09;;;10.23
74321;BMP280;62738;45.772;4.804;2023-03-11T09:31:54;98945.56;;;10.24
74321;BMP280;62738;45.772;4.804;2023-03-11T09:34:21;98955.75;;;10.21
74321;BMP280;62738;45.772;4.804;2023-03-11T09:36:48;98954.88;;;10.19
74321;BMP280;62738;45.772;4.804;2023-03-11T09:39:14;98962.34;;;10.26
74321;BMP280;62738;45.772;4.804;2023-03-11T09:42:01;98959.38;;;10.05
74321;BMP280;62738;45.772;4.804;2023-03-11T09:47:32;98979.06;;;10.18
74321;BMP280;62738;45.772;4.804;2023-03-11T09:55:49;98978.34;;;10.18
74321;BMP280;62738;45.772;4.804;2023-03-11T10:00:55;98974.97;;;10.00
74321;BMP280;62738;45.772;4.804;2023-03-11T10:03:29;98982.16;;;9.86
74321;BMP280;62738;45.772;4.804;2023-03-11T10:06:04;98981.41;;;9.76
74321;BMP280;62738;45.772;4.804;2023-03-11T10:08:42;98972.38;;;9.85
74321;BMP280;62738;45.772;4.804;2023-03-11T10:11:49;98973.56;;;9.55
74321;BMP280;62738;45.772;4.804;2023-03-11T10:19:46;98989.81;;;9.07
74321;BMP280;62738;45.772;4.804;2023-03-11T10:29:02;98985.72;;;9.25
74321;BMP280;62738;45.772;4.804;2023-03-11T10:31:58;98980.28;;;9.18
74321;BMP280;62738;45.772;4.804;2023-03-11T10:35:01;98986.19;;;9.31
74321;BMP280;62738;45.772;4.804;2023-03-11T10:37:32;98981.09;;;9.28
74321;BMP280;62738;45.772;4.804;2023-03-11T10:40:35;98982.13;;;9.32
74321;BMP280;62738;45.772;4.804;2023-03-11T10:43:04;98982.03;;;9.40
74321;BMP280;62738;45.772;4.804;2023-03-11T10:45:40;98992.16;;;9.45
74321;BMP280;62738;45.772;4.804;2023-03-11T10:48:14;99004.41;;;9.52
74321;BMP280;62738;45.772;4.804;2023-03-11T10:50:49;98988.75;;;9.64
74321;BMP280;62738;45.772;4.804;2023-03-11T10:53:18;98987.28;;;9.63
74321;BMP280;62738;45.772;4.804;2023-03-11T10:55:51;98985.94;;;9.54
74321;BMP280;62738;45.772;4.804;2023-03-11T10:58:23;98996.84;;;9.52
74321;BMP280;62738;45.772;4.804;2023-03-11T11:01:13;98997.41;;;9.77
74321;BMP280;62738;45.772;4.804;2023-03-11T11:03:41;98999.84;;;9.91
74321;BMP280;62738;45.772;4.804;2023-03-11T11:06:28;98995.72;;;9.82
74321;BMP280;62738;45.772;4.804;2023-03-11T11:09:14;99003.28;;;9.81
74321;BMP280;62738;45.772;4.804;2023-03-11T11:11:42;99019.06;;;9.62
74321;BMP280;62738;45.772;4.804;2023-03-11T11:14:24;99023.16;;;9.87
74321;BMP280;62738;45.772;4.804;2023-03-11T11:16:51;99034.88;;;9.78
74321;BMP280;62738;45.772;4.804;2023-03-11T11:19:18;99046.09;;;9.71
74321;BMP280;62738;45.772;4.804;2023-03-11T11:21:48;99048.28;;;9.72
74321;BMP280;62738;45.772;4.804;2023-03-11T11:24:28;99044.06;;;9.71
74321;BMP280;62738;45.772;4.804;2023-03-11T11:27:11;99033.06;;;9.64
74321;BMP280;62738;45.772;4.804;2023-03-11T11:29:41;99038.81;;;9.75
74321;BMP280;62738;45.772;4.804;2023-03-11T11:34:40;99024.59;;;9.88
74321;BMP280;62738;45.772;4.804;2023-03-11T11:37:12;99016.59;;;9.93
74321;BMP280;62738;45.772;4.804;2023-03-11T11:39:52;99024.59;;;10.15
74321;BMP280;62738;45.772;4.804;2023-03-11T11:42:22;99018.50;;;9.90
74321;BMP280;62738;45.772;4.804;2023-03-11T11:45:01;99020.94;;;9.86
74321;BMP280;62738;45.772;4.804;2023-03-11T11:47:35;99033.47;;;10.14
74321;BMP280;62738;45.772;4.804;2023-03-11T11:50:32;99047.22;;;10.21
74321;BMP280;62738;45.772;4.804;2023-03-11T11:53:08;99038.69;;;10.37
74321;BMP280;62738;45.772;4.804;2023-03-11T11:55:40;99027.56;;;10.27
74321;BMP280;62738;45.772;4.804;2023-03-11T11:58:09;99036.94;;;10.05
74321;BMP280;62738;45.772;4.804;2023-03-11T12:00:57;99035.72;;;10.25
74321;BMP280;62738;45.772;4.804;2023-03-11T12:06:21;99019.84;;;10.25
74321;BMP280;62738;45.772;4.804;2023-03-11T12:08:59;99029.75;;;10.28
74321;BMP280;62738;45.772;4.804;2023-03-11T12:11:38;99023.41;;;10.55
74321;BMP280;62738;45.772;4.804;2023-03-11T12:16:59;99024.91;;;10.75
74321;BMP280;62738;45.772;4.804;2023-03-11T12:19:48;99013.09;;;10.65
74321;BMP280;62738;45.772;4.804;2023-03-11T12:25:18;99021.78;;;10.52
74321;BMP280;62738;45.772;4.804;2023-03-11T12:30:52;99016.44;;;10.63
74321;BMP280;62738;45.772;4.804;2023-03-11T12:33:44;99006.09;;;10.93
74321;BMP280;62738;45.772;4.804;2023-03-11T12:36:39;99025.09;;;10.96
74321;BMP280;62738;45.772;4.804;2023-03-11T12:39:19;99028.41;;;10.76
74321;BMP280;62738;45.772;4.804;2023-03-11T12:41:47;99034.84;;;10.78
74321;BMP280;62738;45.772;4.804;2023-03-11T12:44:25;99022.72;;;10.74
74321;BMP280;62738;45.772;4.804;2023-03-11T12:49:24;99028.44;;;10.85
74321;BMP280;62738;45.772;4.804;2023-03-11T12:52:18;99027.44;;;10.90
74321;BMP280;62738;45.772;4.804;2023-03-11T12:54:47;99016.91;;;11.18
74321;BMP280;62738;45.772;4.804;2023-03-11T13:05:06;99000.44;;;11.29
74321;BMP280;62738;45.772;4.804;2023-03-11T13:10:42;99012.94;;;11.40
74321;BMP280;62738;45.772;4.804;2023-03-11T13:18:44;99007.81;;;11.46
74321;BMP280;62738;45.772;4.804;2023-03-11T13:29:44;99006.38;;;11.45
74321;BMP280;62738;45.772;4.804;2023-03-11T13:32:41;99015.97;;;11.63
74321;BMP280;62738;45.772;4.804;2023-03-11T13:35:37;99011.00;;;11.71
74321;BMP280;62738;45.772;4.804;2023-03-11T13:40:49;99016.91;;;11.37
74321;BMP280;62738;45.772;4.804;2023-03-11T13:43:19;99018.66;;;11.42
74321;BMP280;62738;45.772;4.804;2023-03-11T13:45:51;99024.63;;;11.48
74321;BMP280;62738;45.772;4.804;2023-03-11T13:48:25;99024.88;;;11.71
74321;BMP280;62738;45.772;4.804;2023-03-11T13:51:01;99040.34;;;11.84
74321;BMP280;62738;45.772;4.804;2023-03-11T13:53:41;99043.16;;;11.74
74321;BMP280;62738;45.772;4.804;2023-03-11T13:56:16;99044.91;;;11.79
74321;BMP280;62738;45.772;4.804;2023-03-11T13:58:44;99046.09;;;11.67
74321;BMP280;62738;45.772;4.804;2023-03-11T14:01:14;99050.16;;;11.75
74321;BMP280;62738;45.772;4.804;2023-03-11T14:03:45;99050.97;;;11.97
74321;BMP280;62738;45.772;4.804;2023-03-11T14:06:17;99055.41;;;11.90
74321;BMP280;62738;45.772;4.804;2023-03-11T14:08:56;99046.78;;;12.27
74321;BMP280;62738;45.772;4.804;2023-03-11T14:11:27;99048.75;;;12.15
74321;BMP280;62738;45.772;4.804;2023-03-11T14:13:54;99059.00;;;12.12
74321;BMP280;62738;45.772;4.804;2023-03-11T14:16:32;99059.44;;;12.09
74321;BMP280;62738;45.772;4.804;2023-03-11T14:19:03;99057.69;;;12.04
74321;BMP280;62738;45.772;4.804;2023-03-11T14:21:34;99053.03;;;11.97
74321;BMP280;62738;45.772;4.804;2023-03-11T14:24:01;99054.00;;;12.11
74321;BMP280;62738;45.772;4.804;2023-03-11T14:26:33;99060.44;;;12.13
74321;BMP280;62738;45.772;4.804;2023-03-11T14:29:07;99054.31;;;12.05
74321;BMP280;62738;45.772;4.804;2023-03-11T14:31:36;99053.03;;;11.97
74321;BMP280;62738;45.772;4.804;2023-03-11T14:34:12;99062.09;;;12.07
74321;BMP280;62738;45.772;4.804;2023-03-11T14:36:45;99065.06;;;11.89
74321;BMP280;62738;45.772;4.804;2023-03-11T14:39:34;99074.88;;;11.90
74321;BMP280;62738;45.772;4.804;2023-03-11T14:44:38;99069.00;;;11.96
74321;BMP280;62738;45.772;4.804;2023-03-11T14:47:20;99071.31;;;12.09
74321;BMP280;62738;45.772;4.804;2023-03-11T14:49:49;99071.47;;;12.02
74321;BMP280;62738;45.772;4.804;2023-03-11T14:52:34;99071.00;;;12.05
74321;BMP280;62738;45.772;4.804;2023-03-11T14:55:11;99066.59;;;12.12
74321;BMP280;62738;45.772;4.804;2023-03-11T14:57:41;99063.00;;;12.61
74321;BMP280;62738;45.772;4.804;2023-03-11T15:00:23;99074.69;;;12.69
74321;BMP280;62738;45.772;4.804;2023-03-11T15:03:00;99084.09;;;12.64
74321;BMP280;62738;45.772;4.804;2023-03-11T15:08:04;99093.44;;;12.38
74321;BMP280;62738;45.772;4.804;2023-03-11T15:10:33;99091.56;;;12.31
74321;BMP280;62738;45.772;4.804;2023-03-11T15:13:12;99087.38;;;12.20
74321;BMP280;62738;45.772;4.804;2023-03-11T15:15:40;99096.09;;;12.26
74321;BMP280;62738;45.772;4.804;2023-03-11T15:18:24;99099.84;;;12.10
74321;BMP280;62738;45.772;4.804;2023-03-11T15:21:15;99097.13;;;12.31
74321;BMP280;62738;45.772;4.804;2023-03-11T15:24:01;99100.56;;;12.01
74321;BMP280;62738;45.772;4.804;2023-03-11T15:26:32;99096.97;;;12.29
74321;BMP280;62738;45.772;4.804;2023-03-11T15:29:02;99104.72;;;12.30
74321;BMP280;62738;45.772;4.804;2023-03-11T15:31:36;99101.78;;;12.38
74321;BMP280;62738;45.772;4.804;2023-03-11T15:34:22;99118.59;;;12.40
74321;BMP280;62738;45.772;4.804;2023-03-11T15:47:16;99114.44;;;12.20
74321;BMP280;62738;45.772;4.804;2023-03-11T15:49:44;99116.84;;;12.45
74321;BMP280;62738;45.772;4.804;2023-03-11T15:52:11;99116.72;;;12.33
74321;BMP280;62738;45.772;4.804;2023-03-11T15:54:37;99122.59;;;12.27
74321;BMP280;62738;45.772;4.804;2023-03-11T15:57:07;99131.47;;;11.95
74321;BMP280;62738;45.772;4.804;2023-03-11T15:59:37;99112.44;;;12.01